sensor_id;sensor_type;location;lat;lon;timestamp;temperature;humidity
14188;DHT22;7175;51.978;5.330;2022-08-21T00:00:49;16.40;99.90
14188;DHT22;7175;51.978;5.330;2022-08-21T00:03:18;16.40;99.90
14188;DHT22;7175;51.978;5.330;2022-08-21T00:05:48;16.30;99.90
14188;DHT22;7175;51.978;5.330;2022-08-21T00:08:19;16.40;99.90
14188;DHT22;7175;51.978;5.330;2022-08-21T00:10:48;16.30;99.90
14188;DHT22;7175;51.978;5.330;2022-08-21T00:13:17;16.40;99.90
14188;DHT22;7175;51.978;5.330;2022-08-21T00:15:47;16.40;99.90
14188;DHT22;7175;51.978;5.330;2022-08-21T00:18:17;16.30;99.90
14188;DHT22;7175;51.978;5.330;2022-08-21T00:20:46;16.30;99.90
14188;DHT22;7175;51.978;5.330;2022-08-21T00:23:14;16.20;99.90
14188;DHT22;7175;51.978;5.330;2022-08-21T00:25:44;16.20;99.90
14188;DHT22;7175;51.978;5.330;2022-08-21T00:28:13;16.20;99.90
14188;DHT22;7175;51.978;5.330;2022-08-21T00:30:41;16.20;99.90
14188;DHT22;7175;51.978;5.330;2022-08-21T00:33:10;16.10;99.90
14188;DHT22;7175;51.978;5.330;2022-08-21T00:35:41;16.20;99.90
14188;DHT22;7175;51.978;5.330;2022-08-21T00:38:10;16.10;99.90
14188;DHT22;7175;51.978;5.330;2022-08-21T00:40:42;16.10;99.90
14188;DHT22;7175;51.978;5.330;2022-08-21T00:43:14;16.10;99.90
14188;DHT22;7175;51.978;5.330;2022-08-21T00:45:43;16.10;99.90
14188;DHT22;7175;51.978;5.330;2022-08-21T00:48:11;16.10;99.90
14188;DHT22;7175;51.978;5.330;2022-08-21T00:50:43;16.10;99.90
14188;DHT22;7175;51.978;5.330;2022-08-21T00:53:13;16.00;99.90
14188;DHT22;7175;51.978;5.330;2022-08-21T00:55:41;16.00;99.90
14188;DHT22;7175;51.978;5.330;2022-08-21T00:58:13;15.90;99.90
14188;DHT22;7175;51.978;5.330;2022-08-21T01:00:45;15.90;99.90
14188;DHT22;7175;51.978;5.330;2022-08-21T01:03:16;15.90;99.90
14188;DHT22;7175;51.978;5.330;2022-08-21T01:05:49;15.90;99.90
14188;DHT22;7175;51.978;5.330;2022-08-21T01:08:18;15.80;99.90
14188;DHT22;7175;51.978;5.330;2022-08-21T01:10:47;15.90;99.90
14188;DHT22;7175;51.978;5.330;2022-08-21T01:13:22;15.90;99.90
14188;DHT22;7175;51.978;5.330;2022-08-21T01:15:53;15.80;99.90
14188;DHT22;7175;51.978;5.330;2022-08-21T01:18:22;15.80;99.90
14188;DHT22;7175;51.978;5.330;2022-08-21T01:21:03;15.80;99.90
14188;DHT22;7175;51.978;5.330;2022-08-21T01:23:32;15.80;99.90
14188;DHT22;7175;51.978;5.330;2022-08-21T01:26:00;15.80;99.90
14188;DHT22;7175;51.978;5.330;2022-08-21T01:28:29;15.70;99.90
14188;DHT22;7175;51.978;5.330;2022-08-21T01:30:59;15.80;99.90
14188;DHT22;7175;51.978;5.330;2022-08-21T01:33:29;15.70;99.90
14188;DHT22;7175;51.978;5.330;2022-08-21T01:35:57;15.80;99.90
14188;DHT22;7175;51.978;5.330;2022-08-21T01:38:26;15.80;99.90
14188;DHT22;7175;51.978;5.330;2022-08-21T01:40:57;15.70;99.90
14188;DHT22;7175;51.978;5.330;2022-08-21T01:43:25;15.70;99.90
14188;DHT22;7175;51.978;5.330;2022-08-21T01:46:05;15.70;99.90
14188;DHT22;7175;51.978;5.330;2022-08-21T01:48:33;15.60;99.90
14188;DHT22;7175;51.978;5.330;2022-08-21T01:51:02;15.60;99.90
14188;DHT22;7175;51.978;5.330;2022-08-21T01:53:32;15.60;99.90
14188;DHT22;7175;51.978;5.330;2022-08-21T01:56:06;15.60;99.90
14188;DHT22;7175;51.978;5.330;2022-08-21T01:58:39;15.60;99.90
14188;DHT22;7175;51.978;5.330;2022-08-21T02:01:07;15.50;99.90
14188;DHT22;7175;51.978;5.330;2022-08-21T02:03:36;15.60;99.90
14188;DHT22;7175;51.978;5.330;2022-08-21T02:06:05;15.60;99.90
14188;DHT22;7175;51.978;5.330;2022-08-21T02:08:35;15.50;99.90
14188;DHT22;7175;51.978;5.330;2022-08-21T02:11:04;15.50;99.90
14188;DHT22;7175;51.978;5.330;2022-08-21T02:13:32;15.50;99.90
14188;DHT22;7175;51.978;5.330;2022-08-21T02:16:00;15.40;99.90
14188;DHT22;7175;51.978;5.330;2022-08-21T02:18:28;15.50;99.90
14188;DHT22;7175;51.978;5.330;2022-08-21T02:20:56;15.50;99.90
14188;DHT22;7175;51.978;5.330;2022-08-21T02:23:24;15.40;99.90
14188;DHT22;7175;51.978;5.330;2022-08-21T02:25:57;15.40;99.90
14188;DHT22;7175;51.978;5.330;2022-08-21T02:28:25;15.40;99.90
14188;DHT22;7175;51.978;5.330;2022-08-21T02:30:54;15.40;99.90
14188;DHT22;7175;51.978;5.330;2022-08-21T02:33:23;15.40;99.90
14188;DHT22;7175;51.978;5.330;2022-08-21T02:35:52;15.40;99.90
14188;DHT22;7175;51.978;5.330;2022-08-21T02:38:21;15.40;99.90
14188;DHT22;7175;51.978;5.330;2022-08-21T02:40:51;15.40;99.90
14188;DHT22;7175;51.978;5.330;2022-08-21T02:43:23;15.40;99.90
14188;DHT22;7175;51.978;5.330;2022-08-21T02:45:52;15.40;99.90
14188;DHT22;7175;51.978;5.330;2022-08-21T02:48:23;15.30;99.90
14188;DHT22;7175;51.978;5.330;2022-08-21T02:50:53;15.40;99.90
14188;DHT22;7175;51.978;5.330;2022-08-21T02:53:22;15.40;99.90
14188;DHT22;7175;51.978;5.330;2022-08-21T02:55:51;15.40;99.90
14188;DHT22;7175;51.978;5.330;2022-08-21T02:58:26;15.40;99.90
14188;DHT22;7175;51.978;5.330;2022-08-21T03:00:54;15.30;99.90
14188;DHT22;7175;51.978;5.330;2022-08-21T03:03:22;15.30;99.90
14188;DHT22;7175;51.978;5.330;2022-08-21T03:05:51;15.40;99.90
14188;DHT22;7175;51.978;5.330;2022-08-21T03:08:21;15.30;99.90
14188;DHT22;7175;51.978;5.330;2022-08-21T03:10:54;15.30;99.90
14188;DHT22;7175;51.978;5.330;2022-08-21T03:13:23;15.20;99.90
14188;DHT22;7175;51.978;5.330;2022-08-21T03:15:51;15.20;99.90
14188;DHT22;7175;51.978;5.330;2022-08-21T03:18:19;15.20;99.90
14188;DHT22;7175;51.978;5.330;2022-08-21T03:20:47;15.20;99.90
14188;DHT22;7175;51.978;5.330;2022-08-21T03:23:17;15.10;99.90
14188;DHT22;7175;51.978;5.330;2022-08-21T03:25:46;15.10;99.90
14188;DHT22;7175;51.978;5.330;2022-08-21T03:28:17;15.10;99.90
14188;DHT22;7175;51.978;5.330;2022-08-21T03:30:49;15.10;99.90
14188;DHT22;7175;51.978;5.330;2022-08-21T03:33:18;15.10;99.90
14188;DHT22;7175;51.978;5.330;2022-08-21T03:35:55;15.00;99.90
14188;DHT22;7175;51.978;5.330;2022-08-21T03:38:24;15.00;99.90
14188;DHT22;7175;51.978;5.330;2022-08-21T03:40:52;14.90;99.90
14188;DHT22;7175;51.978;5.330;2022-08-21T03:43:21;14.90;99.90
14188;DHT22;7175;51.978;5.330;2022-08-21T03:45:50;14.90;99.90
14188;DHT22;7175;51.978;5.330;2022-08-21T03:48:19;14.90;99.90
14188;DHT22;7175;51.978;5.330;2022-08-21T03:50:47;14.90;99.90
14188;DHT22;7175;51.978;5.330;2022-08-21T03:53:16;14.90;99.90
14188;DHT22;7175;51.978;5.330;2022-08-21T03:55:45;14.90;99.90
14188;DHT22;7175;51.978;5.330;2022-08-21T03:58:14;14.90;99.90
14188;DHT22;7175;51.978;5.330;2022-08-21T04:00:44;14.90;99.90
14188;DHT22;7175;51.978;5.330;2022-08-21T04:03:13;14.90;99.90
14188;DHT22;7175;51.978;5.330;2022-08-21T04:05:43;14.90;99.90
14188;DHT22;7175;51.978;5.330;2022-08-21T04:08:13;14.80;99.90
14188;DHT22;7175;51.978;5.330;2022-08-21T04:10:43;14.80;99.90
14188;DHT22;7175;51.978;5.330;2022-08-21T04:13:11;14.80;99.90
14188;DHT22;7175;51.978;5.330;2022-08-21T04:15:41;14.80;99.90
14188;DHT22;7175;51.978;5.330;2022-08-21T04:18:09;14.80;99.90
14188;DHT22;7175;51.978;5.330;2022-08-21T04:20:39;14.80;99.90
14188;DHT22;7175;51.978;5.330;2022-08-21T04:23:13;14.80;99.90
14188;DHT22;7175;51.978;5.330;2022-08-21T04:25:50;14.80;99.90
14188;DHT22;7175;51.978;5.330;2022-08-21T04:28:19;14.80;99.90
14188;DHT22;7175;51.978;5.330;2022-08-21T04:30:49;14.80;99.90
14188;DHT22;7175;51.978;5.330;2022-08-21T04:33:19;14.70;99.90
14188;DHT22;7175;51.978;5.330;2022-08-21T04:35:49;14.70;99.90
14188;DHT22;7175;51.978;5.330;2022-08-21T04:38:17;14.70;99.90
14188;DHT22;7175;51.978;5.330;2022-08-21T04:40:46;14.70;99.90
14188;DHT22;7175;51.978;5.330;2022-08-21T04:43:15;14.70;99.90
14188;DHT22;7175;51.978;5.330;2022-08-21T04:45:45;14.70;99.90
14188;DHT22;7175;51.978;5.330;2022-08-21T04:48:26;14.70;99.90
14188;DHT22;7175;51.978;5.330;2022-08-21T04:51:03;14.70;99.90
14188;DHT22;7175;51.978;5.330;2022-08-21T04:53:44;14.70;99.90
14188;DHT22;7175;51.978;5.330;2022-08-21T04:56:27;14.70;99.90
14188;DHT22;7175;51.978;5.330;2022-08-21T04:59:05;14.70;99.90
14188;DHT22;7175;51.978;5.330;2022-08-21T05:01:44;14.70;99.90
14188;DHT22;7175;51.978;5.330;2022-08-21T05:04:18;14.70;99.90
14188;DHT22;7175;51.978;5.330;2022-08-21T05:06:57;14.70;99.90
14188;DHT22;7175;51.978;5.330;2022-08-21T05:09:32;14.70;99.90
14188;DHT22;7175;51.978;5.330;2022-08-21T05:12:16;14.70;99.90
14188;DHT22;7175;51.978;5.330;2022-08-21T05:14:48;14.80;99.90
14188;DHT22;7175;51.978;5.330;2022-08-21T05:17:20;14.70;99.90
14188;DHT22;7175;51.978;5.330;2022-08-21T05:19:50;14.80;99.90
14188;DHT22;7175;51.978;5.330;2022-08-21T05:22:21;14.90;99.90
14188;DHT22;7175;51.978;5.330;2022-08-21T05:24:53;14.90;99.90
14188;DHT22;7175;51.978;5.330;2022-08-21T05:27:29;14.90;99.90
14188;DHT22;7175;51.978;5.330;2022-08-21T05:30:13;14.80;99.90
14188;DHT22;7175;51.978;5.330;2022-08-21T05:32:42;14.90;99.90
14188;DHT22;7175;51.978;5.330;2022-08-21T05:35:17;15.00;99.90
14188;DHT22;7175;51.978;5.330;2022-08-21T05:37:55;15.00;99.90
14188;DHT22;7175;51.978;5.330;2022-08-21T05:40:26;15.10;99.90
14188;DHT22;7175;51.978;5.330;2022-08-21T05:42:55;15.10;99.90
14188;DHT22;7175;51.978;5.330;2022-08-21T05:45:28;15.10;99.90
14188;DHT22;7175;51.978;5.330;2022-08-21T05:48:17;15.20;99.90
14188;DHT22;7175;51.978;5.330;2022-08-21T05:50:52;15.30;99.90
14188;DHT22;7175;51.978;5.330;2022-08-21T05:53:24;15.30;99.90
14188;DHT22;7175;51.978;5.330;2022-08-21T05:56:17;15.40;99.90
14188;DHT22;7175;51.978;5.330;2022-08-21T05:58:45;15.60;99.90
14188;DHT22;7175;51.978;5.330;2022-08-21T06:01:13;15.60;99.90
14188;DHT22;7175;51.978;5.330;2022-08-21T06:03:42;15.70;99.90
14188;DHT22;7175;51.978;5.330;2022-08-21T06:06:11;15.80;99.90
14188;DHT22;7175;51.978;5.330;2022-08-21T06:08:40;15.90;99.90
14188;DHT22;7175;51.978;5.330;2022-08-21T06:11:09;15.90;99.90
14188;DHT22;7175;51.978;5.330;2022-08-21T06:13:37;16.10;99.90
14188;DHT22;7175;51.978;5.330;2022-08-21T06:16:08;16.30;99.90
14188;DHT22;7175;51.978;5.330;2022-08-21T06:18:36;16.60;99.90
14188;DHT22;7175;51.978;5.330;2022-08-21T06:21:05;16.90;99.90
14188;DHT22;7175;51.978;5.330;2022-08-21T06:23:34;17.00;99.90
14188;DHT22;7175;51.978;5.330;2022-08-21T06:26:05;17.00;99.90
14188;DHT22;7175;51.978;5.330;2022-08-21T06:28:34;17.20;99.90
14188;DHT22;7175;51.978;5.330;2022-08-21T06:31:10;17.30;99.90
14188;DHT22;7175;51.978;5.330;2022-08-21T06:33:40;17.40;99.90
14188;DHT22;7175;51.978;5.330;2022-08-21T06:36:09;17.60;99.90
14188;DHT22;7175;51.978;5.330;2022-08-21T06:38:38;17.60;99.90
14188;DHT22;7175;51.978;5.330;2022-08-21T06:41:08;17.60;99.90
14188;DHT22;7175;51.978;5.330;2022-08-21T06:43:36;17.70;99.90
14188;DHT22;7175;51.978;5.330;2022-08-21T06:46:06;17.90;99.90
14188;DHT22;7175;51.978;5.330;2022-08-21T06:48:34;17.90;99.90
14188;DHT22;7175;51.978;5.330;2022-08-21T06:51:03;18.00;99.90
14188;DHT22;7175;51.978;5.330;2022-08-21T06:53:31;18.10;99.90
14188;DHT22;7175;51.978;5.330;2022-08-21T06:55:59;18.00;99.90
14188;DHT22;7175;51.978;5.330;2022-08-21T06:58:28;18.10;99.90
14188;DHT22;7175;51.978;5.330;2022-08-21T07:00:57;18.10;99.90
14188;DHT22;7175;51.978;5.330;2022-08-21T07:03:29;18.30;99.90
14188;DHT22;7175;51.978;5.330;2022-08-21T07:05:58;18.20;99.90
14188;DHT22;7175;51.978;5.330;2022-08-21T07:08:27;18.30;99.90
14188;DHT22;7175;51.978;5.330;2022-08-21T07:10:58;18.50;99.90
14188;DHT22;7175;51.978;5.330;2022-08-21T07:13:27;18.60;99.90
14188;DHT22;7175;51.978;5.330;2022-08-21T07:15:56;18.80;99.90
14188;DHT22;7175;51.978;5.330;2022-08-21T07:18:30;18.90;99.90
14188;DHT22;7175;51.978;5.330;2022-08-21T07:20:58;19.10;99.90
14188;DHT22;7175;51.978;5.330;2022-08-21T07:23:30;19.20;99.90
14188;DHT22;7175;51.978;5.330;2022-08-21T07:25:59;19.30;99.90
14188;DHT22;7175;51.978;5.330;2022-08-21T07:28:28;19.30;99.90
14188;DHT22;7175;51.978;5.330;2022-08-21T07:30:59;19.40;99.90
14188;DHT22;7175;51.978;5.330;2022-08-21T07:33:30;19.50;99.90
14188;DHT22;7175;51.978;5.330;2022-08-21T07:35:58;19.50;99.90
14188;DHT22;7175;51.978;5.330;2022-08-21T07:38:26;19.70;99.90
14188;DHT22;7175;51.978;5.330;2022-08-21T07:40:55;19.70;99.90
14188;DHT22;7175;51.978;5.330;2022-08-21T07:43:26;19.80;99.90
14188;DHT22;7175;51.978;5.330;2022-08-21T07:45:54;20.20;99.90
14188;DHT22;7175;51.978;5.330;2022-08-21T07:48:25;20.20;99.90
14188;DHT22;7175;51.978;5.330;2022-08-21T07:50:54;20.20;99.90
14188;DHT22;7175;51.978;5.330;2022-08-21T07:53:29;20.00;99.90
14188;DHT22;7175;51.978;5.330;2022-08-21T07:56:00;20.00;99.90
14188;DHT22;7175;51.978;5.330;2022-08-21T07:58:29;20.20;99.90
14188;DHT22;7175;51.978;5.330;2022-08-21T08:00:59;20.40;99.90
14188;DHT22;7175;51.978;5.330;2022-08-21T08:03:29;20.50;99.90
14188;DHT22;7175;51.978;5.330;2022-08-21T08:05:58;20.50;99.90
14188;DHT22;7175;51.978;5.330;2022-08-21T08:08:33;20.70;99.90
14188;DHT22;7175;51.978;5.330;2022-08-21T08:11:01;20.90;99.90
14188;DHT22;7175;51.978;5.330;2022-08-21T08:13:30;20.90;99.90
14188;DHT22;7175;51.978;5.330;2022-08-21T08:15:58;20.90;99.90
14188;DHT22;7175;51.978;5.330;2022-08-21T08:18:29;21.00;99.90
14188;DHT22;7175;51.978;5.330;2022-08-21T08:20:58;21.10;99.90
14188;DHT22;7175;51.978;5.330;2022-08-21T08:23:27;21.20;99.90
14188;DHT22;7175;51.978;5.330;2022-08-21T08:25:55;21.50;99.90
14188;DHT22;7175;51.978;5.330;2022-08-21T08:28:23;21.30;99.90
14188;DHT22;7175;51.978;5.330;2022-08-21T08:30:53;21.60;99.90
14188;DHT22;7175;51.978;5.330;2022-08-21T08:33:22;21.90;99.90
14188;DHT22;7175;51.978;5.330;2022-08-21T08:35:52;21.90;99.90
14188;DHT22;7175;51.978;5.330;2022-08-21T08:38:23;21.90;99.90
14188;DHT22;7175;51.978;5.330;2022-08-21T08:40:57;21.50;99.90
14188;DHT22;7175;51.978;5.330;2022-08-21T08:43:28;21.70;99.90
14188;DHT22;7175;51.978;5.330;2022-08-21T08:45:58;21.70;99.90
14188;DHT22;7175;51.978;5.330;2022-08-21T08:48:41;22.10;99.90
14188;DHT22;7175;51.978;5.330;2022-08-21T08:51:24;22.50;99.90
14188;DHT22;7175;51.978;5.330;2022-08-21T08:53:56;22.50;99.90
14188;DHT22;7175;51.978;5.330;2022-08-21T08:56:29;22.60;99.90
14188;DHT22;7175;51.978;5.330;2022-08-21T08:59:02;22.90;99.90
14188;DHT22;7175;51.978;5.330;2022-08-21T09:01:30;22.80;99.90
14188;DHT22;7175;51.978;5.330;2022-08-21T09:04:04;22.70;99.90
14188;DHT22;7175;51.978;5.330;2022-08-21T09:06:58;22.70;99.90
14188;DHT22;7175;51.978;5.330;2022-08-21T09:09:46;22.90;99.90
14188;DHT22;7175;51.978;5.330;2022-08-21T09:12:33;23.00;99.90
14188;DHT22;7175;51.978;5.330;2022-08-21T09:15:12;23.50;99.90
14188;DHT22;7175;51.978;5.330;2022-08-21T09:17:55;23.70;99.90
14188;DHT22;7175;51.978;5.330;2022-08-21T09:20:35;24.10;99.90
14188;DHT22;7175;51.978;5.330;2022-08-21T09:23:19;24.20;99.90
14188;DHT22;7175;51.978;5.330;2022-08-21T09:25:56;23.90;99.90
14188;DHT22;7175;51.978;5.330;2022-08-21T09:28:28;23.30;99.90
14188;DHT22;7175;51.978;5.330;2022-08-21T09:31:05;23.50;99.90
14188;DHT22;7175;51.978;5.330;2022-08-21T09:33:34;23.90;99.90
14188;DHT22;7175;51.978;5.330;2022-08-21T09:36:03;24.00;99.90
14188;DHT22;7175;51.978;5.330;2022-08-21T09:38:35;24.00;99.90
14188;DHT22;7175;51.978;5.330;2022-08-21T09:41:08;23.80;99.90
14188;DHT22;7175;51.978;5.330;2022-08-21T09:43:38;23.80;99.90
14188;DHT22;7175;51.978;5.330;2022-08-21T09:46:09;23.60;99.90
14188;DHT22;7175;51.978;5.330;2022-08-21T09:48:44;23.80;99.90
14188;DHT22;7175;51.978;5.330;2022-08-21T09:51:17;23.60;99.90
14188;DHT22;7175;51.978;5.330;2022-08-21T09:53:50;24.00;99.90
14188;DHT22;7175;51.978;5.330;2022-08-21T09:56:27;24.30;99.90
14188;DHT22;7175;51.978;5.330;2022-08-21T09:59:19;24.50;99.90
14188;DHT22;7175;51.978;5.330;2022-08-21T10:01:50;24.50;99.90
14188;DHT22;7175;51.978;5.330;2022-08-21T10:04:27;24.40;99.90
14188;DHT22;7175;51.978;5.330;2022-08-21T10:07:06;25.00;99.90
14188;DHT22;7175;51.978;5.330;2022-08-21T10:09:37;25.10;99.90
14188;DHT22;7175;51.978;5.330;2022-08-21T10:12:11;24.80;99.90
14188;DHT22;7175;51.978;5.330;2022-08-21T10:14:50;25.10;99.90
14188;DHT22;7175;51.978;5.330;2022-08-21T10:17:29;25.40;99.90
14188;DHT22;7175;51.978;5.330;2022-08-21T10:20:05;25.30;99.90
14188;DHT22;7175;51.978;5.330;2022-08-21T10:22:41;25.20;99.90
14188;DHT22;7175;51.978;5.330;2022-08-21T10:25:19;25.20;99.90
14188;DHT22;7175;51.978;5.330;2022-08-21T10:28:00;25.10;99.90
14188;DHT22;7175;51.978;5.330;2022-08-21T10:30:37;25.30;99.90
14188;DHT22;7175;51.978;5.330;2022-08-21T10:33:16;25.90;99.90
14188;DHT22;7175;51.978;5.330;2022-08-21T10:35:53;25.90;99.90
14188;DHT22;7175;51.978;5.330;2022-08-21T10:38:45;26.20;99.90
14188;DHT22;7175;51.978;5.330;2022-08-21T10:41:46;26.20;99.90
14188;DHT22;7175;51.978;5.330;2022-08-21T10:44:30;26.10;99.90
14188;DHT22;7175;51.978;5.330;2022-08-21T10:47:10;26.40;99.90
14188;DHT22;7175;51.978;5.330;2022-08-21T10:49:45;26.50;99.90
14188;DHT22;7175;51.978;5.330;2022-08-21T10:52:32;26.10;99.90
14188;DHT22;7175;51.978;5.330;2022-08-21T10:55:06;25.80;99.90
14188;DHT22;7175;51.978;5.330;2022-08-21T10:57:41;25.90;99.90
14188;DHT22;7175;51.978;5.330;2022-08-21T11:00:14;25.30;99.70
14188;DHT22;7175;51.978;5.330;2022-08-21T11:02:49;25.30;99.80
14188;DHT22;7175;51.978;5.330;2022-08-21T11:05:24;25.70;98.90
14188;DHT22;7175;51.978;5.330;2022-08-21T11:07:57;26.00;99.10
14188;DHT22;7175;51.978;5.330;2022-08-21T11:10:36;26.10;97.90
14188;DHT22;7175;51.978;5.330;2022-08-21T11:13:29;26.10;97.90
14188;DHT22;7175;51.978;5.330;2022-08-21T11:16:05;26.40;95.70
14188;DHT22;7175;51.978;5.330;2022-08-21T11:18:39;26.80;96.10
14188;DHT22;7175;51.978;5.330;2022-08-21T11:21:19;27.00;95.90
14188;DHT22;7175;51.978;5.330;2022-08-21T11:23:57;27.20;95.20
14188;DHT22;7175;51.978;5.330;2022-08-21T11:26:35;26.60;93.80
14188;DHT22;7175;51.978;5.330;2022-08-21T11:29:13;26.90;94.10
14188;DHT22;7175;51.978;5.330;2022-08-21T11:31:53;27.00;93.00
14188;DHT22;7175;51.978;5.330;2022-08-21T11:34:34;27.30;93.50
14188;DHT22;7175;51.978;5.330;2022-08-21T11:37:14;26.90;93.70
14188;DHT22;7175;51.978;5.330;2022-08-21T11:39:54;26.20;93.00
14188;DHT22;7175;51.978;5.330;2022-08-21T11:42:30;26.40;93.70
14188;DHT22;7175;51.978;5.330;2022-08-21T11:45:14;26.80;92.60
14188;DHT22;7175;51.978;5.330;2022-08-21T11:47:56;26.80;90.80
14188;DHT22;7175;51.978;5.330;2022-08-21T11:50:28;26.20;93.90
14188;DHT22;7175;51.978;5.330;2022-08-21T11:53:07;26.30;95.10
14188;DHT22;7175;51.978;5.330;2022-08-21T11:55:43;25.70;94.30
14188;DHT22;7175;51.978;5.330;2022-08-21T11:58:16;25.40;95.80
14188;DHT22;7175;51.978;5.330;2022-08-21T12:00:50;26.60;94.40
14188;DHT22;7175;51.978;5.330;2022-08-21T12:03:25;27.60;92.90
14188;DHT22;7175;51.978;5.330;2022-08-21T12:05:57;27.20;92.20
14188;DHT22;7175;51.978;5.330;2022-08-21T12:08:29;26.50;92.30
14188;DHT22;7175;51.978;5.330;2022-08-21T12:11:03;26.20;92.80
14188;DHT22;7175;51.978;5.330;2022-08-21T12:13:33;26.60;93.10
14188;DHT22;7175;51.978;5.330;2022-08-21T12:16:12;26.20;93.00
14188;DHT22;7175;51.978;5.330;2022-08-21T12:18:42;25.80;93.70
14188;DHT22;7175;51.978;5.330;2022-08-21T12:21:21;25.80;94.40
14188;DHT22;7175;51.978;5.330;2022-08-21T12:24:01;26.20;94.60
14188;DHT22;7175;51.978;5.330;2022-08-21T12:26:34;26.40;93.10
14188;DHT22;7175;51.978;5.330;2022-08-21T12:29:15;26.40;93.70
14188;DHT22;7175;51.978;5.330;2022-08-21T12:31:51;26.20;93.00
14188;DHT22;7175;51.978;5.330;2022-08-21T12:34:24;26.40;91.70
14188;DHT22;7175;51.978;5.330;2022-08-21T12:36:57;26.30;92.20
14188;DHT22;7175;51.978;5.330;2022-08-21T12:39:29;26.10;93.40
14188;DHT22;7175;51.978;5.330;2022-08-21T12:42:00;25.80;92.10
14188;DHT22;7175;51.978;5.330;2022-08-21T12:44:39;25.80;92.30
14188;DHT22;7175;51.978;5.330;2022-08-21T12:47:16;26.60;91.70
14188;DHT22;7175;51.978;5.330;2022-08-21T12:49:52;26.00;92.40
14188;DHT22;7175;51.978;5.330;2022-08-21T12:52:27;25.50;92.80
14188;DHT22;7175;51.978;5.330;2022-08-21T12:55:03;25.20;92.90
14188;DHT22;7175;51.978;5.330;2022-08-21T12:57:32;25.20;94.10
14188;DHT22;7175;51.978;5.330;2022-08-21T13:00:08;25.30;95.00
14188;DHT22;7175;51.978;5.330;2022-08-21T13:02:48;25.00;95.20
14188;DHT22;7175;51.978;5.330;2022-08-21T13:05:27;25.20;95.30
14188;DHT22;7175;51.978;5.330;2022-08-21T13:07:56;25.60;94.60
14188;DHT22;7175;51.978;5.330;2022-08-21T13:10:27;26.80;92.70
14188;DHT22;7175;51.978;5.330;2022-08-21T13:12:58;27.40;91.40
14188;DHT22;7175;51.978;5.330;2022-08-21T13:15:36;26.40;90.90
14188;DHT22;7175;51.978;5.330;2022-08-21T13:18:06;25.80;92.50
14188;DHT22;7175;51.978;5.330;2022-08-21T13:20:37;25.20;93.10
14188;DHT22;7175;51.978;5.330;2022-08-21T13:23:20;25.00;93.20
14188;DHT22;7175;51.978;5.330;2022-08-21T13:25:48;25.60;94.00
14188;DHT22;7175;51.978;5.330;2022-08-21T13:28:16;26.90;92.90
14188;DHT22;7175;51.978;5.330;2022-08-21T13:30:46;27.40;90.00
14188;DHT22;7175;51.978;5.330;2022-08-21T13:33:21;27.40;88.30
14188;DHT22;7175;51.978;5.330;2022-08-21T13:36:05;27.70;87.30
14188;DHT22;7175;51.978;5.330;2022-08-21T13:38:36;27.30;86.80
14188;DHT22;7175;51.978;5.330;2022-08-21T13:41:10;28.00;88.70
14188;DHT22;7175;51.978;5.330;2022-08-21T13:43:45;28.60;86.30
14188;DHT22;7175;51.978;5.330;2022-08-21T13:46:15;27.80;83.30
14188;DHT22;7175;51.978;5.330;2022-08-21T13:48:44;27.50;84.00
14188;DHT22;7175;51.978;5.330;2022-08-21T13:51:12;27.50;81.70
14188;DHT22;7175;51.978;5.330;2022-08-21T13:53:46;27.80;84.20
14188;DHT22;7175;51.978;5.330;2022-08-21T13:56:25;27.60;80.40
14188;DHT22;7175;51.978;5.330;2022-08-21T13:58:55;27.50;82.70
14188;DHT22;7175;51.978;5.330;2022-08-21T14:01:26;27.80;83.80
14188;DHT22;7175;51.978;5.330;2022-08-21T14:03:59;28.20;81.10
14188;DHT22;7175;51.978;5.330;2022-08-21T14:06:34;28.60;81.50
14188;DHT22;7175;51.978;5.330;2022-08-21T14:09:08;28.10;78.80
14188;DHT22;7175;51.978;5.330;2022-08-21T14:11:37;27.60;81.60
14188;DHT22;7175;51.978;5.330;2022-08-21T14:14:15;27.60;79.80
14188;DHT22;7175;51.978;5.330;2022-08-21T14:16:52;27.90;79.00
14188;DHT22;7175;51.978;5.330;2022-08-21T14:19:24;28.00;79.50
14188;DHT22;7175;51.978;5.330;2022-08-21T14:21:53;27.70;76.40
14188;DHT22;7175;51.978;5.330;2022-08-21T14:24:27;27.50;77.10
14188;DHT22;7175;51.978;5.330;2022-08-21T14:27:00;26.90;78.10
14188;DHT22;7175;51.978;5.330;2022-08-21T14:29:33;26.50;78.80
14188;DHT22;7175;51.978;5.330;2022-08-21T14:32:12;26.70;83.20
14188;DHT22;7175;51.978;5.330;2022-08-21T14:34:52;26.70;87.00
14188;DHT22;7175;51.978;5.330;2022-08-21T14:37:24;27.20;89.40
14188;DHT22;7175;51.978;5.330;2022-08-21T14:39:53;27.20;89.20
14188;DHT22;7175;51.978;5.330;2022-08-21T14:42:21;26.90;89.10
14188;DHT22;7175;51.978;5.330;2022-08-21T14:44:54;26.90;88.50
14188;DHT22;7175;51.978;5.330;2022-08-21T14:47:24;26.60;83.80
14188;DHT22;7175;51.978;5.330;2022-08-21T14:49:54;26.20;84.90
14188;DHT22;7175;51.978;5.330;2022-08-21T14:52:22;25.70;84.10
14188;DHT22;7175;51.978;5.330;2022-08-21T14:54:50;25.70;86.50
14188;DHT22;7175;51.978;5.330;2022-08-21T14:57:18;25.70;89.60
14188;DHT22;7175;51.978;5.330;2022-08-21T14:59:46;25.70;87.20
14188;DHT22;7175;51.978;5.330;2022-08-21T15:02:15;25.60;89.50
14188;DHT22;7175;51.978;5.330;2022-08-21T15:04:43;25.50;90.50
14188;DHT22;7175;51.978;5.330;2022-08-21T15:07:13;25.30;90.50
14188;DHT22;7175;51.978;5.330;2022-08-21T15:09:41;25.10;91.80
14188;DHT22;7175;51.978;5.330;2022-08-21T15:12:11;25.20;91.40
14188;DHT22;7175;51.978;5.330;2022-08-21T15:14:40;25.20;92.20
14188;DHT22;7175;51.978;5.330;2022-08-21T15:17:10;25.20;92.20
14188;DHT22;7175;51.978;5.330;2022-08-21T15:19:40;25.00;91.80
14188;DHT22;7175;51.978;5.330;2022-08-21T15:22:12;24.80;92.60
14188;DHT22;7175;51.978;5.330;2022-08-21T15:24:45;24.80;93.00
14188;DHT22;7175;51.978;5.330;2022-08-21T15:27:15;24.70;93.40
14188;DHT22;7175;51.978;5.330;2022-08-21T15:29:44;24.90;94.10
14188;DHT22;7175;51.978;5.330;2022-08-21T15:32:20;24.70;93.80
14188;DHT22;7175;51.978;5.330;2022-08-21T15:34:51;24.70;93.70
14188;DHT22;7175;51.978;5.330;2022-08-21T15:37:22;24.60;93.90
14188;DHT22;7175;51.978;5.330;2022-08-21T15:39:54;24.70;93.90
14188;DHT22;7175;51.978;5.330;2022-08-21T15:42:24;24.80;94.00
14188;DHT22;7175;51.978;5.330;2022-08-21T15:44:54;24.60;93.40
14188;DHT22;7175;51.978;5.330;2022-08-21T15:47:25;24.80;93.70
14188;DHT22;7175;51.978;5.330;2022-08-21T15:49:56;24.70;94.00
14188;DHT22;7175;51.978;5.330;2022-08-21T15:52:26;24.70;94.10
14188;DHT22;7175;51.978;5.330;2022-08-21T15:54:57;24.70;94.30
14188;DHT22;7175;51.978;5.330;2022-08-21T15:57:26;24.70;93.80
14188;DHT22;7175;51.978;5.330;2022-08-21T15:59:58;24.70;94.10
14188;DHT22;7175;51.978;5.330;2022-08-21T16:02:33;24.70;93.80
14188;DHT22;7175;51.978;5.330;2022-08-21T16:05:01;24.60;93.90
14188;DHT22;7175;51.978;5.330;2022-08-21T16:07:31;24.60;94.70
14188;DHT22;7175;51.978;5.330;2022-08-21T16:09:59;24.50;94.30
14188;DHT22;7175;51.978;5.330;2022-08-21T16:12:32;24.60;94.50
14188;DHT22;7175;51.978;5.330;2022-08-21T16:15:03;24.50;94.40
14188;DHT22;7175;51.978;5.330;2022-08-21T16:17:33;24.40;94.90